METAR Data
IDs: Format: Raw Decoded Include TAF

Data at: 0704 UTC 28 Sep 2022

KGON 280656Z AUTO 32004KT 10SM SCT100 12/09 A2996 RMK AO2 SLP145 T01170089 $